Time;durP1;ratioP1;P1;durP2;ratioP2;P2;SDS_P1;SDS_P2;PMS_P1;PMS_P2;Temp;Humidity;BMP_temperature;BMP_pressure;BME280_temperature;BME280_humidity;BME280_pressure;Samples;Min_cycle;Max_cycle;Signal;HPM_P1;HPM_P2
2023/02/08 00:01:55;;;;;;;16.30;11.10;;;;;;;0.55;56.25;103515.10;105806;1282;24215;-58
2023/02/08 00:04:23;;;;;;;17.50;11.60;;;;;;;0.51;56.41;103518.28;105128;1282;1003025;-58
2023/02/08 00:06:54;;;;;;;20.90;12.90;;;;;;;0.46;56.63;103522.73;105921;1282;25442;-58
2023/02/08 00:09:23;;;;;;;17.20;11.70;;;;;;;0.42;56.88;103523.85;105391;1280;1003732;-58
2023/02/08 00:11:52;;;;;;;18.30;11.50;;;;;;;0.40;57.15;103526.98;106185;1280;25386;-58
2023/02/08 00:14:21;;;;;;;19.00;10.90;;;;;;;0.35;57.09;103522.93;105977;1280;25523;-58
2023/02/08 00:16:49;;;;;;;19.40;12.70;;;;;;;0.32;57.57;103528.83;106243;1280;25375;-59
2023/02/08 00:19:17;;;;;;;20.10;12.50;;;;;;;0.28;57.73;103530.13;105595;1280;1003538;-58
2023/02/08 00:21:46;;;;;;;19.70;12.20;;;;;;;0.26;57.98;103528.66;105291;1280;1002852;-58
2023/02/08 00:24:14;;;;;;;17.00;11.70;;;;;;;0.26;58.13;103527.27;106220;1279;23261;-58
2023/02/08 00:26:43;;;;;;;19.40;12.10;;;;;;;0.27;58.44;103527.98;106229;1280;25437;-58
2023/02/08 00:29:11;;;;;;;16.80;11.50;;;;;;;0.26;58.42;103530.68;105479;1280;1002874;-58
2023/02/08 00:31:40;;;;;;;17.20;12.20;;;;;;;0.26;58.41;103534.80;106303;1280;25547;-58
2023/02/08 00:34:08;;;;;;;18.30;11.30;;;;;;;0.25;58.31;103532.19;105900;1280;22535;-58
2023/02/08 00:36:37;;;;;;;18.00;11.60;;;;;;;0.23;58.28;103534.23;105489;1280;1002850;-59
2023/02/08 00:39:07;;;;;;;21.20;13.10;;;;;;;0.22;58.70;103539.77;105113;1283;1003103;-58
2023/02/08 00:41:35;;;;;;;20.50;13.00;;;;;;;0.19;58.85;103541.83;105462;1284;1002989;-59
2023/02/08 00:44:04;;;;;;;19.20;12.90;;;;;;;0.18;58.93;103543.77;106400;1276;25369;-59
2023/02/08 00:46:33;;;;;;;20.00;11.70;;;;;;;0.18;59.23;103547.36;105640;1276;1002929;-58
2023/02/08 00:49:02;;;;;;;18.60;12.00;;;;;;;0.18;59.08;103544.47;105635;1276;1002845;-59
2023/02/08 00:51:31;;;;;;;21.80;13.50;;;;;;;0.17;59.03;103549.02;105630;1276;1002914;-59
2023/02/08 00:54:00;;;;;;;19.00;12.30;;;;;;;0.16;59.31;103548.64;105478;1280;1003745;-58
2023/02/08 00:56:29;;;;;;;20.50;13.00;;;;;;;0.16;59.38;103549.12;106390;1277;25373;-58
2023/02/08 00:58:59;;;;;;;19.70;12.60;;;;;;;0.15;59.49;103547.34;106822;1270;25344;-58
2023/02/08 01:01:28;;;;;;;19.70;12.10;;;;;;;0.13;59.54;103548.58;106806;1270;25437;-58
2023/02/08 01:03:57;;;;;;;20.00;12.10;;;;;;;0.10;59.70;103546.16;106828;1269;25499;-58
2023/02/08 01:09:51;;;;;;;20.20;12.70;;;;;;;0.11;60.47;103554.10;103107;1291;1003773;-58
2023/02/08 01:12:19;;;;;;;21.50;12.60;;;;;;;0.11;60.57;103558.67;105905;1284;22543;-58
2023/02/08 01:14:47;;;;;;;21.30;12.90;;;;;;;0.09;60.52;103560.97;105895;1282;25552;-58
2023/02/08 01:17:17;;;;;;;19.30;11.90;;;;;;;0.08;60.64;103557.14;105201;1282;1003285;-58
2023/02/08 01:19:45;;;;;;;17.20;12.00;;;;;;;0.06;60.76;103562.84;105846;1282;25442;-58
2023/02/08 01:22:14;;;;;;;23.30;13.20;;;;;;;0.05;61.03;103560.52;105976;1282;25368;-58
2023/02/08 01:24:42;;;;;;;19.90;11.80;;;;;;;0.05;61.20;103568.03;106076;1281;206057;-58
2023/02/08 01:27:11;;;;;;;19.30;12.30;;;;;;;0.06;61.22;103567.74;106076;1280;22582;-58
2023/02/08 01:29:39;;;;;;;21.50;11.80;;;;;;;0.07;61.29;103570.18;106200;1280;25371;-58
2023/02/08 01:32:08;;;;;;;16.40;11.00;;;;;;;0.06;61.36;103574.79;106166;1284;24248;-58
2023/02/08 01:34:37;;;;;;;20.90;13.00;;;;;;;0.05;61.48;103575.39;105455;1281;1003483;-59
2023/02/08 01:37:05;;;;;;;18.90;12.00;;;;;;;0.04;61.52;103585.74;105485;1281;1003503;-58
2023/02/08 01:39:33;;;;;;;22.00;13.50;;;;;;;0.03;61.58;103592.11;106219;1280;25348;-58
2023/02/08 01:42:03;;;;;;;20.20;13.20;;;;;;;0.00;61.63;103586.54;105437;1282;1002890;-58
2023/02/08 01:45:09;;;;;;;21.30;12.70;;;;;;;0.00;61.70;103582.95;105501;1280;1003816;-58
2023/02/08 01:47:38;;;;;;;20.30;12.20;;;;;;;0.00;61.97;103589.77;106340;1280;24369;-58
2023/02/08 01:50:06;;;;;;;17.70;11.50;;;;;;;-0.01;62.04;103590.23;105202;1280;1002801;-57
2023/02/08 01:52:35;;;;;;;18.90;12.70;;;;;;;0.01;62.28;103590.49;105349;1280;1003818;-57
2023/02/08 01:55:08;;;;;;;18.80;12.20;;;;;;;0.04;62.34;103589.79;106010;1281;25399;-58
2023/02/08 01:57:36;;;;;;;18.40;11.70;;;;;;;0.02;62.33;103590.22;105608;1279;1003271;-57
2023/02/08 02:00:08;;;;;;;21.10;13.20;;;;;;;-0.01;62.39;103596.52;105584;1277;1002983;-58
2023/02/08 02:02:43;;;;;;;18.90;12.60;;;;;;;-0.03;62.36;103597.23;106305;1281;25376;-58
2023/02/08 02:05:11;;;;;;;17.60;13.00;;;;;;;-0.04;62.31;103601.08;105981;1284;22572;-58
2023/02/08 02:07:41;;;;;;;15.80;11.50;;;;;;;-0.03;62.38;103600.81;105298;1284;1005629;-58
2023/02/08 02:10:24;;;;;;;18.80;11.80;;;;;;;-0.02;62.39;103604.16;106424;1278;25338;-58
2023/02/08 02:12:54;;;;;;;20.80;13.00;;;;;;;-0.02;62.35;103610.27;105668;1279;1003428;-57
2023/02/08 02:15:22;;;;;;;24.70;11.90;;;;;;;0.00;62.32;103620.30;106377;1278;22555;-58
2023/02/08 02:17:51;;;;;;;17.60;13.00;;;;;;;0.01;62.21;103625.66;105692;1282;1003636;-57
2023/02/08 02:20:49;;;;;;;21.50;12.20;;;;;;;0.02;62.06;103616.01;105931;1282;25372;-57
2023/02/08 02:23:54;;;;;;;19.70;12.60;;;;;;;0.03;61.95;103630.73;106282;1278;25451;-57
2023/02/08 02:26:27;;;;;;;18.90;12.00;;;;;;;0.02;61.83;103631.98;106333;1277;24900;-57
2023/02/08 02:29:21;;;;;;;17.30;12.20;;;;;;;0.01;61.70;103632.63;106296;1278;25461;-57
2023/02/08 02:32:11;;;;;;;20.50;12.00;;;;;;;0.01;61.47;103639.62;105560;1277;1003714;-58
2023/02/08 02:34:56;;;;;;;16.10;10.90;;;;;;;-0.01;61.23;103639.04;106349;1281;25394;-57
2023/02/08 02:37:29;;;;;;;16.60;11.30;;;;;;;-0.01;61.39;103646.35;106342;1281;24255;-57
2023/02/08 02:40:32;;;;;;;19.70;12.50;;;;;;;0.00;61.33;103649.32;106349;1279;25389;-58
2023/02/08 02:46:19;;;;;;;17.90;11.80;;;;;;;0.02;60.97;103652.49;106335;1277;22542;-58
2023/02/08 02:49:06;;;;;;;18.20;11.60;;;;;;;0.05;60.91;103652.48;105499;1277;1003666;-59
2023/02/08 02:51:48;;;;;;;22.80;13.10;;;;;;;0.05;60.68;103655.09;106277;1279;25377;-58
2023/02/08 02:54:22;;;;;;;17.40;11.70;;;;;;;0.05;60.50;103659.34;106341;1276;25224;-58
2023/02/08 02:56:52;;;;;;;17.60;12.30;;;;;;;0.05;60.48;103659.17;105531;1279;1004188;-58
2023/02/08 02:59:21;;;;;;;15.90;11.40;;;;;;;0.06;60.16;103660.73;106351;1282;24353;-58
2023/02/08 03:01:49;;;;;;;16.60;11.50;;;;;;;0.06;60.17;103660.23;105641;1278;1003097;-57
2023/02/08 03:04:31;;;;;;;17.10;11.50;;;;;;;0.05;59.96;103666.82;106392;1281;25360;-58
2023/02/08 03:07:18;;;;;;;17.00;11.50;;;;;;;0.03;60.00;103669.44;105657;1277;1003752;-57
2023/02/08 03:10:26;;;;;;;17.00;10.50;;;;;;;0.03;60.26;103668.25;105580;1281;1003399;-57
2023/02/08 03:13:24;;;;;;;16.00;10.70;;;;;;;0.05;60.04;103672.79;106631;1278;25536;-57
2023/02/08 03:16:16;;;;;;;15.80;10.90;;;;;;;0.05;59.86;103678.95;106462;1276;24473;-57
2023/02/08 03:18:54;;;;;;;16.10;11.50;;;;;;;0.07;60.09;103678.78;106599;1278;24315;-59
2023/02/08 03:21:35;;;;;;;16.70;11.40;;;;;;;0.12;59.84;103680.28;106343;1280;24308;-57
2023/02/08 03:24:10;;;;;;;18.30;11.40;;;;;;;0.12;59.68;103682.54;106639;1280;25331;-58
2023/02/08 03:26:59;;;;;;;16.70;11.70;;;;;;;0.13;59.82;103688.88;106712;1275;22625;-57
2023/02/08 03:29:42;;;;;;;18.10;11.90;;;;;;;0.12;59.46;103689.52;106687;1272;22550;-58
2023/02/08 03:32:50;;;;;;;19.70;12.40;;;;;;;0.10;59.38;103695.01;106750;1278;22539;-57
2023/02/08 03:35:22;;;;;;;14.70;11.00;;;;;;;0.10;59.26;103695.01;106028;1286;25539;-57
2023/02/08 03:38:16;;;;;;;18.80;12.20;;;;;;;0.11;59.18;103696.94;106003;1280;24420;-58
2023/02/08 03:40:46;;;;;;;17.30;11.20;;;;;;;0.13;59.27;103703.60;106011;1286;24296;-57
2023/02/08 03:43:30;;;;;;;14.80;9.70;;;;;;;0.15;59.18;103701.46;106124;1280;23117;-57
2023/02/08 03:46:09;;;;;;;15.80;10.40;;;;;;;0.17;58.96;103702.29;105123;1280;1002860;-57
2023/02/08 03:48:40;;;;;;;13.70;10.40;;;;;;;0.19;58.90;103702.97;106036;1280;22558;-57
2023/02/08 03:51:09;;;;;;;19.90;11.90;;;;;;;0.20;58.57;103703.76;105374;1280;1003287;-58
2023/02/08 03:53:39;;;;;;;16.40;10.40;;;;;;;0.21;58.26;103710.92;105199;1279;1003313;-57
2023/02/08 03:56:12;;;;;;;19.00;10.70;;;;;;;0.21;58.05;103712.67;106178;1280;22570;-58
2023/02/08 03:58:48;;;;;;;15.70;10.20;;;;;;;0.22;58.13;103716.67;105794;1281;24317;-59
2023/02/08 04:01:39;;;;;;;16.70;11.30;;;;;;;0.23;58.03;103720.12;106081;1285;22649;-57
2023/02/08 04:04:07;;;;;;;19.20;11.20;;;;;;;0.23;57.98;103724.93;105758;1286;25516;-57
2023/02/08 04:06:36;;;;;;;18.50;11.00;;;;;;;0.24;57.64;103733.53;105561;1292;25335;-57
2023/02/08 04:09:04;;;;;;;16.60;10.70;;;;;;;0.23;57.65;103737.55;104893;1291;1003441;-57
2023/02/08 04:11:35;;;;;;;17.00;11.00;;;;;;;0.23;57.54;103745.75;105724;1286;25387;-57
2023/02/08 04:14:04;;;;;;;14.50;9.60;;;;;;;0.23;57.55;103748.31;106179;1280;25348;-57
2023/02/08 04:16:32;;;;;;;16.60;10.60;;;;;;;0.24;57.60;103745.48;106438;1278;25371;-57
2023/02/08 04:19:01;;;;;;;16.30;10.80;;;;;;;0.24;57.23;103745.34;106269;1278;25432;-57
2023/02/08 04:21:30;;;;;;;14.60;10.00;;;;;;;0.24;57.39;103746.67;106275;1280;22549;-58
2023/02/08 04:23:59;;;;;;;15.70;10.60;;;;;;;0.23;57.14;103756.36;105150;1285;1003636;-57
2023/02/08 04:26:28;;;;;;;12.90;9.80;;;;;;;0.23;56.95;103759.23;106312;1280;24336;-57
2023/02/08 04:28:57;;;;;;;15.60;10.10;;;;;;;0.22;57.08;103759.86;106298;1278;25350;-58
2023/02/08 04:31:25;;;;;;;14.20;10.30;;;;;;;0.22;56.91;103767.85;105301;1282;1003705;-57
2023/02/08 04:33:54;;;;;;;15.10;10.20;;;;;;;0.21;56.86;103768.31;106285;1280;25554;-57
2023/02/08 04:36:22;;;;;;;15.40;10.10;;;;;;;0.21;56.73;103765.55;106141;1280;24310;-57
2023/02/08 04:38:51;;;;;;;15.70;9.40;;;;;;;0.22;56.82;103765.14;106366;1282;25336;-57
2023/02/08 04:41:19;;;;;;;16.50;9.70;;;;;;;0.23;56.69;103769.31;106414;1274;25358;-57
2023/02/08 04:43:48;;;;;;;16.60;9.70;;;;;;;0.23;56.56;103768.77;106603;1273;23312;-57
2023/02/08 04:46:17;;;;;;;14.50;8.90;;;;;;;0.23;56.79;103772.89;106818;1272;23009;-58
2023/02/08 04:48:46;;;;;;;12.00;8.90;;;;;;;0.23;56.63;103776.16;106754;1274;24269;-57
2023/02/08 04:51:14;;;;;;;14.80;9.10;;;;;;;0.23;56.62;103778.86;106713;1274;25352;-57
2023/02/08 04:53:43;;;;;;;16.30;9.90;;;;;;;0.22;56.58;103781.55;106643;1274;25344;-57
2023/02/08 04:56:13;;;;;;;13.20;8.20;;;;;;;0.23;56.60;103784.32;106842;1273;25359;-57
2023/02/08 04:58:42;;;;;;;14.40;9.60;;;;;;;0.23;56.65;103784.14;105923;1274;1002516;-57
2023/02/08 05:01:10;;;;;;;15.30;9.90;;;;;;;0.23;56.66;103788.60;106022;1274;1002836;-57
2023/02/08 05:03:39;;;;;;;13.80;9.20;;;;;;;0.23;56.56;103793.23;106734;1274;25341;-57
2023/02/08 05:06:07;;;;;;;14.50;10.40;;;;;;;0.22;56.36;103795.52;106709;1273;25376;-57
2023/02/08 05:08:35;;;;;;;14.90;9.70;;;;;;;0.21;56.16;103800.71;106811;1273;25336;-57
2023/02/08 05:11:04;;;;;;;13.90;9.10;;;;;;;0.19;56.00;103806.76;106460;1272;22556;-57
2023/02/08 05:13:33;;;;;;;14.90;9.30;;;;;;;0.18;56.10;103811.47;106730;1273;22925;-58
2023/02/08 05:16:01;;;;;;;13.70;8.80;;;;;;;0.17;56.10;103819.92;106371;1276;25374;-57
2023/02/08 05:18:30;;;;;;;14.00;9.50;;;;;;;0.17;56.04;103819.73;106779;1277;25449;-57
2023/02/08 05:20:59;;;;;;;14.70;8.90;;;;;;;0.15;55.90;103822.73;105984;1273;1002977;-57
2023/02/08 05:23:28;;;;;;;13.90;9.10;;;;;;;0.15;55.69;103825.21;106061;1257;1002927;-57
2023/02/08 05:25:56;;;;;;;14.30;9.00;;;;;;;0.14;55.67;103831.33;106730;1272;22983;-57
2023/02/08 05:28:25;;;;;;;13.20;8.70;;;;;;;0.12;55.83;103837.19;106820;1273;23353;-58
2023/02/08 05:30:53;;;;;;;17.90;9.70;;;;;;;0.11;55.89;103838.81;105626;1280;1003259;-57
2023/02/08 05:33:22;;;;;;;15.50;9.80;;;;;;;0.10;55.88;103841.10;106002;1272;1003430;-57
2023/02/08 05:35:51;;;;;;;19.40;9.70;;;;;;;0.08;55.72;103843.37;106578;1272;25355;-58
2023/02/08 05:38:19;;;;;;;14.50;9.10;;;;;;;0.08;55.70;103852.56;106434;1273;25356;-57
2023/02/08 05:40:48;;;;;;;14.80;8.90;;;;;;;0.08;55.62;103855.63;105974;1273;1003352;-58
2023/02/08 05:43:16;;;;;;;12.40;8.60;;;;;;;0.07;55.75;103859.20;106670;1273;22538;-57
2023/02/08 05:45:44;;;;;;;15.40;8.90;;;;;;;0.07;55.47;103860.70;105899;1273;1002902;-57
2023/02/08 05:48:13;;;;;;;14.70;9.30;;;;;;;0.07;55.82;103860.02;106748;1273;22546;-57
2023/02/08 05:50:41;;;;;;;14.00;8.80;;;;;;;0.08;55.83;103860.06;106663;1273;22536;-57
2023/02/08 05:53:10;;;;;;;14.30;9.30;;;;;;;0.08;55.81;103867.08;105941;1273;1003462;-57
2023/02/08 05:55:39;;;;;;;13.50;8.30;;;;;;;0.09;55.77;103871.90;106706;1273;22579;-57
2023/02/08 05:58:07;;;;;;;14.50;9.00;;;;;;;0.09;55.59;103875.84;106686;1273;25488;-57
2023/02/08 06:00:36;;;;;;;12.70;9.70;;;;;;;0.09;55.57;103878.96;106525;1273;25352;-58
2023/02/08 06:03:05;;;;;;;13.30;8.10;;;;;;;0.09;55.44;103880.98;106848;1272;22640;-57
2023/02/08 06:05:36;;;;;;;12.90;8.10;;;;;;;0.08;55.51;103888.11;106632;1272;23313;-57
2023/02/08 06:08:04;;;;;;;14.40;8.40;;;;;;;0.09;55.57;103890.69;106721;1276;22524;-59
2023/02/08 06:10:36;;;;;;;13.90;8.70;;;;;;;0.11;55.54;103898.04;106679;1273;24222;-57
2023/02/08 06:13:04;;;;;;;14.30;8.60;;;;;;;0.11;55.59;103898.05;106835;1273;25369;-57
2023/02/08 06:15:33;;;;;;;13.80;8.50;;;;;;;0.13;55.73;103899.19;106413;1276;25396;-57
2023/02/08 06:18:02;;;;;;;16.20;9.00;;;;;;;0.14;55.22;103896.67;106834;1273;25330;-57
2023/02/08 06:20:31;;;;;;;11.90;8.00;;;;;;;0.14;55.42;103904.17;106322;1276;25358;-57
2023/02/08 06:23:00;;;;;;;11.50;7.80;;;;;;;0.14;55.51;103902.36;106639;1273;25359;-57
2023/02/08 06:25:29;;;;;;;16.30;8.00;;;;;;;0.17;55.52;103906.14;106346;1275;25470;-57
2023/02/08 06:27:57;;;;;;;12.20;8.60;;;;;;;0.19;55.82;103905.38;106789;1274;22743;-57
2023/02/08 06:30:26;;;;;;;11.00;8.30;;;;;;;0.19;55.87;103912.10;106736;1271;22537;-57
2023/02/08 06:32:55;;;;;;;13.20;8.80;;;;;;;0.21;55.80;103915.95;106699;1272;23176;-57
2023/02/08 06:35:23;;;;;;;9.80;7.50;;;;;;;0.22;55.47;103916.41;106809;1273;22658;-57
2023/02/08 06:37:53;;;;;;;11.20;8.00;;;;;;;0.22;55.41;103918.64;106015;1273;1003663;-57
2023/02/08 06:40:21;;;;;;;12.70;8.50;;;;;;;0.23;55.56;103919.73;106827;1274;22544;-57
2023/02/08 06:42:51;;;;;;;15.80;8.30;;;;;;;0.23;55.53;103921.23;105967;1273;1003295;-57
2023/02/08 06:45:19;;;;;;;13.30;8.60;;;;;;;0.24;55.82;103924.72;106779;1273;25368;-57
2023/02/08 06:47:48;;;;;;;13.00;8.40;;;;;;;0.26;55.88;103928.44;106416;1276;25341;-57
2023/02/08 06:50:16;;;;;;;10.30;7.70;;;;;;;0.28;55.86;103933.54;106010;1273;1003379;-57
2023/02/08 06:52:46;;;;;;;11.10;7.90;;;;;;;0.31;55.98;103941.59;106686;1273;25539;-57
2023/02/08 06:55:14;;;;;;;14.60;8.60;;;;;;;0.33;56.14;103942.30;106358;1277;22552;-58
2023/02/08 06:57:43;;;;;;;13.10;8.60;;;;;;;0.35;55.54;103947.90;106430;1277;24303;-57
2023/02/08 07:00:12;;;;;;;13.20;8.50;;;;;;;0.36;55.53;103951.89;106019;1273;1003228;-58
2023/02/08 07:02:41;;;;;;;14.90;9.90;;;;;;;0.37;55.56;103954.37;106309;1280;22530;-57
2023/02/08 07:05:09;;;;;;;14.70;9.10;;;;;;;0.39;55.53;103959.78;106782;1272;25360;-57
2023/02/08 07:07:39;;;;;;;11.90;8.90;;;;;;;0.43;55.84;103964.34;106661;1273;22521;-57
2023/02/08 07:10:08;;;;;;;13.50;8.70;;;;;;;0.47;55.90;103968.05;106005;1274;1003528;-57
2023/02/08 07:12:37;;;;;;;13.80;9.60;;;;;;;0.51;55.59;103966.94;106467;1276;24413;-57
2023/02/08 07:15:07;;;;;;;14.70;8.60;;;;;;;0.54;55.57;103963.55;106351;1276;25377;-57
2023/02/08 07:17:35;;;;;;;14.30;9.50;;;;;;;0.55;55.62;103969.64;106700;1273;24358;-57
2023/02/08 07:20:04;;;;;;;13.60;9.10;;;;;;;0.57;55.53;103971.29;106721;1273;25432;-57
2023/02/08 07:22:34;;;;;;;13.20;9.30;;;;;;;0.59;55.64;103968.91;106649;1273;22553;-57
2023/02/08 07:25:03;;;;;;;12.60;8.90;;;;;;;0.60;55.83;103974.42;106020;1273;1003684;-57
2023/02/08 07:27:31;;;;;;;14.90;8.90;;;;;;;0.57;55.62;103972.88;106545;1277;24754;-57
2023/02/08 07:30:00;;;;;;;13.60;8.80;;;;;;;0.59;55.82;103978.64;106018;1273;1003499;-57
2023/02/08 07:32:28;;;;;;;13.50;8.70;;;;;;;0.61;56.22;103982.05;106370;1280;24488;-57
2023/02/08 07:34:57;;;;;;;14.10;8.60;;;;;;;0.66;56.08;103979.80;106736;1273;25548;-57
2023/02/08 07:37:25;;;;;;;13.00;9.20;;;;;;;0.69;56.08;103980.55;106760;1273;22667;-57
2023/02/08 07:39:55;;;;;;;13.80;9.10;;;;;;;0.71;55.85;103978.48;106064;1274;1003627;-57
2023/02/08 07:42:23;;;;;;;14.70;9.40;;;;;;;0.72;55.80;103980.58;106724;1272;23775;-58
2023/02/08 07:44:55;;;;;;;;;;;;;;;0.73;55.48;103981.70;106715;1276;22624;-57
2023/02/08 07:47:23;;;;;;;13.80;8.80;;;;;;;0.75;55.67;103981.29;106550;1273;25371;-57
2023/02/08 07:49:52;;;;;;;15.50;9.10;;;;;;;0.76;55.46;103985.83;106736;1272;25341;-57
2023/02/08 07:52:20;;;;;;;14.40;9.00;;;;;;;0.76;55.39;103987.55;105837;1275;1003410;-57
2023/02/08 07:54:49;;;;;;;15.90;9.90;;;;;;;0.77;55.38;103986.20;105978;1274;1003342;-57
2023/02/08 07:57:20;;;;;;;16.90;9.00;;;;;;;0.79;55.21;103992.52;106760;1273;25380;-57
2023/02/08 07:59:49;;;;;;;11.50;9.10;;;;;;;0.81;55.14;103993.50;105995;1274;1002969;-58
2023/02/08 08:02:20;;;;;;;14.20;10.00;;;;;;;0.84;55.38;104002.13;105592;1279;1003629;-57
2023/02/08 08:04:48;;;;;;;17.20;9.40;;;;;;;0.90;55.67;103999.95;106684;1273;25617;-57
2023/02/08 08:07:17;;;;;;;20.20;11.90;;;;;;;0.96;55.67;104008.58;106677;1273;25341;-57
2023/02/08 08:09:46;;;;;;;13.90;9.30;;;;;;;1.02;55.28;104012.58;105943;1273;1003554;-57
2023/02/08 08:12:14;;;;;;;14.00;8.40;;;;;;;1.08;55.32;104013.85;106793;1273;25365;-57
2023/02/08 08:14:43;;;;;;;15.70;9.20;;;;;;;1.16;55.40;104012.86;106741;1273;25344;-57
2023/02/08 08:17:11;;;;;;;18.80;10.00;;;;;;;1.23;55.14;104014.92;106851;1276;24350;-57
2023/02/08 08:19:41;;;;;;;12.20;8.50;;;;;;;1.31;54.86;104017.14;106812;1273;22533;-57
2023/02/08 08:22:09;;;;;;;10.80;8.00;;;;;;;1.36;54.72;104018.02;106019;1272;1003568;-57
2023/02/08 08:24:38;;;;;;;16.10;9.10;;;;;;;1.42;54.91;104019.45;106788;1272;25380;-57
2023/02/08 08:27:06;;;;;;;12.90;7.90;;;;;;;1.48;54.29;104020.57;106697;1264;25380;-58
2023/02/08 08:29:37;;;;;;;11.90;8.10;;;;;;;1.53;53.63;104022.94;106703;1272;24214;-58
2023/02/08 08:32:06;;;;;;;13.40;8.60;;;;;;;1.54;53.39;104021.98;105905;1277;1005046;-57
2023/02/08 08:34:37;;;;;;;16.10;9.10;;;;;;;1.52;53.00;104027.98;106703;1273;25475;-57
2023/02/08 08:37:05;;;;;;;13.50;8.70;;;;;;;1.50;53.02;104030.45;106734;1273;25370;-57
2023/02/08 08:39:35;;;;;;;16.10;8.50;;;;;;;1.52;52.98;104030.74;106623;1273;25523;-57
2023/02/08 08:42:04;;;;;;;12.50;8.10;;;;;;;1.54;52.78;104029.87;106711;1273;22657;-57
2023/02/08 08:44:33;;;;;;;11.40;7.80;;;;;;;1.56;52.81;104027.45;106659;1276;25427;-57
2023/02/08 08:47:02;;;;;;;13.30;8.90;;;;;;;1.60;52.58;104033.19;106558;1276;25386;-57
2023/02/08 08:49:30;;;;;;;15.20;9.20;;;;;;;1.64;52.44;104033.62;106014;1273;1003645;-57
2023/02/08 08:51:59;;;;;;;14.70;9.30;;;;;;;1.69;52.38;104040.06;105931;1279;1015717;-57
2023/02/08 08:54:28;;;;;;;12.70;9.20;;;;;;;1.72;52.18;104037.70;105992;1273;1002969;-57
2023/02/08 08:56:57;;;;;;;13.80;9.10;;;;;;;1.73;51.80;104033.48;105913;1273;1002815;-57
2023/02/08 08:59:25;;;;;;;13.20;7.40;;;;;;;1.75;52.02;104031.21;106685;1276;25359;-57
2023/02/08 09:01:54;;;;;;;12.40;8.40;;;;;;;1.79;51.67;104035.75;106012;1273;1002900;-57
2023/02/08 09:04:23;;;;;;;11.00;7.30;;;;;;;1.82;51.45;104037.17;106768;1272;25372;-57
2023/02/08 09:06:52;;;;;;;11.90;7.50;;;;;;;1.86;51.80;104034.90;106407;1272;25425;-57
2023/02/08 09:09:20;;;;;;;11.80;7.70;;;;;;;1.93;51.81;104033.95;106688;1273;24256;-58
2023/02/08 09:11:49;;;;;;;14.20;8.10;;;;;;;1.99;51.36;104037.66;105927;1273;1003321;-57
2023/02/08 09:14:17;;;;;;;13.10;7.80;;;;;;;2.05;51.03;104039.38;106044;1272;1003085;-57
2023/02/08 09:16:46;;;;;;;11.40;7.50;;;;;;;2.08;50.63;104040.13;105851;1274;1003628;-58
2023/02/08 09:19:15;;;;;;;12.20;8.60;;;;;;;2.10;50.89;104045.72;106792;1272;25342;-58
2023/02/08 09:21:43;;;;;;;13.70;8.20;;;;;;;2.17;50.83;104042.94;105909;1272;1003002;-58
2023/02/08 09:24:12;;;;;;;17.80;11.50;;;;;;;2.22;50.43;104047.06;106689;1277;22757;-57
2023/02/08 09:26:40;;;;;;;11.60;7.80;;;;;;;2.27;50.14;104046.86;106633;1274;24249;-57
2023/02/08 09:29:08;;;;;;;11.90;7.50;;;;;;;2.30;49.59;104050.95;106655;1272;25389;-57
2023/02/08 09:31:38;;;;;;;9.80;7.10;;;;;;;2.29;48.95;104051.60;105888;1275;1003100;-57
2023/02/08 09:34:08;;;;;;;13.50;7.50;;;;;;;2.27;48.73;104056.59;106735;1272;22528;-57
2023/02/08 09:36:38;;;;;;;11.80;7.50;;;;;;;2.25;48.62;104053.58;105992;1273;1002501;-57
2023/02/08 09:39:09;;;;;;;11.20;7.60;;;;;;;2.25;48.39;104052.89;106734;1273;22529;-57
2023/02/08 09:41:41;;;;;;;13.50;8.70;;;;;;;2.30;48.72;104050.77;106755;1272;24205;-57
2023/02/08 09:44:32;;;;;;;10.50;7.00;;;;;;;2.36;48.45;104048.62;106890;1268;22536;-57
2023/02/08 09:47:09;;;;;;;12.40;7.40;;;;;;;2.41;48.22;104050.16;106083;1268;1003792;-57
2023/02/08 09:49:45;;;;;;;12.90;7.60;;;;;;;2.46;48.40;104045.34;106932;1268;22741;-57
2023/02/08 09:52:15;;;;;;;12.30;7.40;;;;;;;2.51;47.91;104045.10;106132;1268;1002981;-57
2023/02/08 09:54:48;;;;;;;11.70;7.00;;;;;;;2.54;47.89;104042.91;106161;1269;1003767;-58
2023/02/08 09:57:19;;;;;;;11.40;6.90;;;;;;;2.57;47.45;104045.88;106869;1268;22540;-57
2023/02/08 09:59:53;;;;;;;10.90;7.50;;;;;;;2.62;47.48;104039.67;106055;1268;1002955;-57
2023/02/08 10:02:21;;;;;;;13.10;7.50;;;;;;;2.67;47.24;104038.79;106338;1276;26521;-58
2023/02/08 10:04:56;;;;;;;11.90;7.00;;;;;;;2.72;46.93;104033.98;106689;1268;25456;-58
2023/02/08 10:07:25;;;;;;;12.70;7.10;;;;;;;2.77;46.51;104028.08;106431;1271;24367;-58
2023/02/08 10:09:55;;;;;;;9.10;6.90;;;;;;;2.78;46.56;104030.76;106675;1265;24250;-58
2023/02/08 10:12:37;;;;;;;10.50;6.70;;;;;;;2.82;46.39;104027.77;105861;1268;1003775;-58
2023/02/08 10:15:20;;;;;;;12.10;7.00;;;;;;;2.89;46.02;104025.58;105845;1270;1003765;-58
2023/02/08 10:18:17;;;;;;;9.90;7.30;;;;;;;2.93;46.19;104021.25;106591;1270;23254;-58
2023/02/08 10:20:53;;;;;;;11.50;7.20;;;;;;;2.98;46.36;104021.71;105917;1277;24231;-57
2023/02/08 10:23:54;;;;;;;10.30;7.10;;;;;;;3.00;45.37;104027.16;106047;1282;24225;-57
2023/02/08 10:26:38;;;;;;;9.60;6.80;;;;;;;3.01;44.90;104029.61;106359;1268;25327;-59
2023/02/08 10:29:28;;;;;;;11.60;6.50;;;;;;;3.02;44.84;104020.22;105890;1259;1002493;-58
2023/02/08 10:32:34;;;;;;;12.30;6.10;;;;;;;3.00;44.91;104020.98;106488;1277;22764;-58
2023/02/08 10:35:09;;;;;;;11.10;7.30;;;;;;;3.02;44.97;104017.13;105434;1274;1003832;-59
2023/02/08 10:37:40;;;;;;;10.20;6.20;;;;;;;3.04;44.95;104013.83;106067;1281;22646;-58
2023/02/08 10:40:17;;;;;;;10.80;7.80;;;;;;;3.05;45.03;104017.14;106073;1280;25432;-60
2023/02/08 10:43:18;;;;;;;9.40;5.60;;;;;;;3.06;45.00;104022.70;106225;1281;25456;-58
2023/02/08 10:46:14;;;;;;;11.30;6.00;;;;;;;3.12;44.29;104018.30;105992;1280;23137;-58
2023/02/08 10:48:46;;;;;;;8.00;4.90;;;;;;;3.18;43.55;104019.01;105951;1287;25445;-58
2023/02/08 10:51:18;;;;;;;11.00;7.10;;;;;;;3.25;44.11;104023.16;105216;1281;1003410;-58
2023/02/08 10:53:49;;;;;;;10.80;7.10;;;;;;;3.30;44.62;104019.20;105080;1281;1003784;-58
2023/02/08 10:56:27;;;;;;;9.50;6.70;;;;;;;3.35;45.24;104024.79;105376;1287;1003012;-58
2023/02/08 10:58:56;;;;;;;11.70;7.10;;;;;;;3.41;45.03;104023.08;106460;1276;22614;-58
2023/02/08 11:01:25;;;;;;;9.90;7.00;;;;;;;3.44;44.80;104021.20;106556;1268;25350;-58
2023/02/08 11:04:20;;;;;;;7.00;4.80;;;;;;;3.46;44.15;104016.68;106558;1274;22563;-58
2023/02/08 11:06:50;;;;;;;8.70;5.40;;;;;;;3.52;43.41;104023.41;106110;1276;25546;-58
2023/02/08 11:09:22;;;;;;;10.90;7.30;;;;;;;3.58;43.52;104019.65;106219;1280;24439;-58
2023/02/08 11:11:55;;;;;;;8.60;5.30;;;;;;;3.62;43.29;104022.59;105522;1267;1002972;-58
2023/02/08 11:14:25;;;;;;;6.90;4.50;;;;;;;3.64;42.18;104023.42;105741;1273;1002902;-58
2023/02/08 11:17:29;;;;;;;10.50;5.40;;;;;;;3.67;42.68;104022.05;106609;1270;25369;-58
2023/02/08 11:19:58;;;;;;;8.40;5.20;;;;;;;3.73;42.71;104021.07;106001;1267;1003159;-59
2023/02/08 11:22:30;;;;;;;7.50;4.70;;;;;;;3.77;42.45;104018.22;106595;1273;24290;-58
2023/02/08 11:25:04;;;;;;;7.30;5.40;;;;;;;3.83;42.29;104021.30;106652;1273;22628;-59
2023/02/08 11:27:43;;;;;;;6.90;4.40;;;;;;;3.88;41.85;104019.17;106344;1273;22586;-58
2023/02/08 11:30:12;;;;;;;8.50;6.00;;;;;;;3.91;41.48;104009.90;106546;1266;24513;-58
2023/02/08 11:32:42;;;;;;;10.80;7.10;;;;;;;3.93;42.26;104015.88;105987;1273;1003035;-58
2023/02/08 11:35:11;;;;;;;8.00;5.20;;;;;;;3.96;43.38;104013.98;105918;1273;1003224;-58
2023/02/08 11:37:39;;;;;;;9.90;6.30;;;;;;;3.98;42.36;104016.34;106568;1274;25380;-58
2023/02/08 11:40:16;;;;;;;6.50;5.00;;;;;;;4.02;41.63;104009.36;106814;1273;26186;-59